KDHN/DHN METAR and TAF weather

Enter ICAO airport designator
Station Type Date Time Source
KDHN METAR 2019/04/21 21:53 UTC NOAA

KDHN 212153Z 36008KT 10SM CLR 25/03 A3014 RMK AO2 SLP201 T02500028


Station Type Date Time Source
KDHN Decoded METAR 2019/04/21 21:53 UTC NOAA

DOTHAN AIRPORT, AL, United States (KDHN) 31-19N 085-27W 113M
Apr 21, 2019 - 05:53 PM EDT / 2019.04.21 2153 UTC
Wind: from the N (360 degrees) at 9 MPH (8 KT):0
Visibility: 10 mile(s):0
Sky conditions: clear
Temperature: 77.0 F (25.0 C)
Dew Point: 37.0 F (2.8 C)
Relative Humidity: 23%
Pressure (altimeter): 30.14 in. Hg (1020 hPa)
ob: KDHN 212153Z 36008KT 10SM CLR 25/03 A3014 RMK AO2 SLP201 T02500028
cycle: 22

Station Type Date Time Source
KDHN TAF 2019/04/21 18:34 UTC NOAA

TAF KDHN 211732Z 2118/2218 32008KT P6SM SKC

Example: see airport list